createdAt,value
2023-02-04T00:04:13.234Z,99903.31
2023-02-04T00:09:35.063Z,99935.47
2023-02-04T00:14:56.912Z,99955.72
2023-02-04T00:20:18.951Z,99969.94
2023-02-04T00:25:40.805Z,99989.47
2023-02-04T00:31:02.658Z,100004.69
2023-02-04T00:36:24.548Z,100016.41
2023-02-04T00:41:46.412Z,100019.78
2023-02-04T00:47:08.266Z,100028.19
2023-02-04T00:52:30.117Z,100065.41
2023-02-04T00:57:51.922Z,100078.84
2023-02-04T01:03:13.793Z,100093.09
2023-02-04T01:08:35.640Z,100099.91
2023-02-04T01:13:57.950Z,100131.34
2023-02-04T01:19:19.824Z,100141.34
2023-02-04T01:24:41.743Z,100145.75
2023-02-04T01:30:06.505Z,100165.09
2023-02-04T01:35:28.373Z,100184.44
2023-02-04T01:40:50.381Z,100192.19
2023-02-04T01:46:12.265Z,100215.88
2023-02-04T01:51:34.556Z,100237.94
2023-02-04T01:56:56.618Z,100247.19
2023-02-04T02:02:41.966Z,100266.63
2023-02-04T02:34:51.952Z,100382.16
2023-02-04T02:40:14.762Z,100400.97
2023-02-04T02:45:36.781Z,100430.38
2023-02-04T02:50:58.806Z,100451.63
2023-02-04T02:56:20.864Z,100464.41
2023-02-04T03:01:43.672Z,100486.22
2023-02-04T03:07:06.945Z,100481.19
2023-02-04T03:12:28.921Z,100506.97
2023-02-04T03:17:50.965Z,100541.03
2023-02-04T03:23:13.059Z,100532.56
2023-02-04T03:28:40.593Z,100570.06
2023-02-04T03:34:02.465Z,100593.34
2023-02-04T03:39:24.336Z,100602.63
2023-02-04T03:44:46.232Z,100625.16
2023-02-04T03:50:08.473Z,100642.09
2023-02-04T03:55:30.345Z,100650.44
2023-02-04T04:00:52.227Z,100680.66
2023-02-04T04:06:14.095Z,100685.41
2023-02-04T04:11:36.120Z,100705.63
2023-02-04T04:16:58.001Z,100731.50
2023-02-04T04:22:19.834Z,100750.94
2023-02-04T04:27:41.731Z,100758.94
2023-02-04T04:33:03.767Z,100793.63
2023-02-04T04:38:25.676Z,100799.00
2023-02-04T04:43:47.558Z,100817.50
2023-02-04T04:49:09.492Z,100830.69
2023-02-04T04:54:31.365Z,100844.31
2023-02-04T04:59:53.284Z,100859.63
2023-02-04T05:05:15.593Z,100868.09
2023-02-04T05:10:37.452Z,100879.16
2023-02-04T05:15:59.326Z,100901.53
2023-02-04T05:21:21.252Z,100921.03
2023-02-04T05:26:43.178Z,100913.84
2023-02-04T05:32:05.031Z,100927.00
2023-02-04T05:37:26.951Z,100956.78
2023-02-04T05:42:48.854Z,100966.13
2023-02-04T05:48:10.761Z,100987.78
2023-02-04T05:53:32.632Z,101002.25
2023-02-04T05:58:54.990Z,101036.25
2023-02-04T06:04:17.087Z,101060.66
2023-02-04T06:09:38.960Z,101069.97
2023-02-04T06:15:00.822Z,101095.81
2023-02-04T06:20:22.716Z,101103.28
2023-02-04T06:25:44.568Z,101111.63
2023-02-04T06:31:06.528Z,101120.13
2023-02-04T06:36:28.503Z,101158.88
2023-02-04T06:41:50.327Z,101165.44
2023-02-04T06:47:12.234Z,101171.59
2023-02-04T06:52:34.088Z,101186.97
2023-02-04T06:57:55.932Z,101208.56
2023-02-04T07:03:17.824Z,101208.88
2023-02-04T07:08:39.692Z,101227.44
2023-02-04T07:14:01.578Z,101240.19
2023-02-04T07:19:23.479Z,101274.16
2023-02-04T07:24:45.361Z,101268.84
2023-02-04T07:30:07.781Z,101287.47
2023-02-04T07:35:29.836Z,101297.00
2023-02-04T07:40:51.967Z,101309.94
2023-02-04T07:46:14.128Z,101324.28
2023-02-04T07:51:36.040Z,101309.13
2023-02-04T07:56:58.002Z,101317.97
2023-02-04T08:02:19.929Z,101323.31
2023-02-04T08:07:41.865Z,101344.22
2023-02-04T08:13:03.856Z,101334.53
2023-02-04T08:18:25.773Z,101344.44
2023-02-04T08:23:47.658Z,101363.47
2023-02-04T08:29:10.228Z,101368.34
2023-02-04T08:34:32.391Z,101381.88
2023-02-04T08:39:54.289Z,101396.03
2023-02-04T08:45:16.240Z,101387.78
2023-02-04T08:50:39.114Z,101390.72
2023-02-04T08:56:01.136Z,101365.47
2023-02-04T09:01:23.288Z,101422.06
2023-02-04T09:06:46.125Z,101411.53
2023-02-04T09:12:08.069Z,101412.72
2023-02-04T09:17:29.997Z,101412.78
2023-02-04T09:22:51.844Z,101421.31
2023-02-04T09:28:15.103Z,101415.69
2023-02-04T09:33:37.650Z,101416.34
2023-02-04T09:38:59.878Z,101422.66
2023-02-04T09:44:26.339Z,101437.13
2023-02-04T09:49:48.199Z,101441.38
2023-02-04T09:55:16.789Z,101454.47
2023-02-04T10:00:38.807Z,101449.84
2023-02-04T10:06:00.758Z,101453.69
2023-02-04T10:11:26.020Z,101471.41
2023-02-04T10:16:54.232Z,101482.91
2023-02-04T10:22:21.486Z,101469.81
2023-02-04T10:27:58.818Z,101499.91
2023-02-04T10:33:24.414Z,101512.97
2023-02-04T10:38:59.576Z,101525.94
2023-02-04T10:44:30.696Z,101510.03
2023-02-04T10:49:58.779Z,101531.88
2023-02-04T10:55:23.173Z,101542.72
2023-02-04T11:00:45.061Z,101529.25
2023-02-04T11:06:21.783Z,101552.66
2023-02-04T11:11:48.987Z,101563.09
2023-02-04T11:17:20.832Z,101556.16
2023-02-04T11:22:45.790Z,101538.16
2023-02-04T11:28:25.108Z,101548.53
2023-02-04T11:33:47.958Z,101543.66
2023-02-04T11:39:17.075Z,101546.31
2023-02-04T11:44:38.934Z,101549.19
2023-02-04T11:50:04.640Z,101559.75
2023-02-04T11:55:26.668Z,101551.59
2023-02-04T12:00:50.649Z,101558.28
2023-02-04T12:06:25.234Z,101559.50
2023-02-04T12:11:55.689Z,101526.38
2023-02-04T12:17:19.669Z,101560.72
2023-02-04T12:22:41.490Z,101543.91
2023-02-04T12:28:03.395Z,101570.94
2023-02-04T12:33:25.434Z,101571.75
2023-02-04T12:38:47.338Z,101561.13
2023-02-04T12:44:09.153Z,101608.28
2023-02-04T12:49:30.962Z,101601.59
2023-02-04T12:54:53.022Z,101566.94
2023-02-04T13:00:16.737Z,101597.00
2023-02-04T13:05:38.647Z,101622.22
2023-02-04T13:11:00.483Z,101613.47
2023-02-04T13:16:22.452Z,101633.84
2023-02-04T13:21:44.341Z,101655.53
2023-02-04T13:27:06.220Z,101653.06
2023-02-04T13:32:28.133Z,101632.56
2023-02-04T13:37:49.999Z,101664.94
2023-02-04T13:43:11.944Z,101663.97
2023-02-04T13:48:35.213Z,101667.38
2023-02-04T13:53:58.967Z,101682.88
2023-02-04T13:59:21.188Z,101690.72
2023-02-04T14:04:43.027Z,101706.34
2023-02-04T14:10:05.368Z,101707.75
2023-02-04T14:15:27.242Z,101715.38
2023-02-04T14:20:49.192Z,101690.59
2023-02-04T14:26:11.014Z,101713.03
2023-02-04T14:31:32.862Z,101712.75
2023-02-04T14:36:54.695Z,101706.88
2023-02-04T14:42:16.514Z,101731.25
2023-02-04T14:47:39.614Z,101735.63
2023-02-04T14:53:01.486Z,101740.69
2023-02-04T14:58:23.361Z,101731.63
2023-02-04T15:03:45.372Z,101747.00
2023-02-04T15:09:07.399Z,101757.03
2023-02-04T15:14:29.391Z,101760.94
2023-02-04T15:19:51.319Z,101770.69
2023-02-04T15:25:13.553Z,101764.56
2023-02-04T15:30:35.915Z,101768.50
2023-02-04T15:35:57.985Z,101764.44
2023-02-04T15:41:19.857Z,101783.06
2023-02-04T15:46:41.696Z,101788.19
2023-02-04T15:52:04.789Z,101809.81
2023-02-04T15:57:28.946Z,101804.03
2023-02-04T16:02:50.939Z,101792.66
2023-02-04T16:08:12.914Z,101826.94
2023-02-04T16:13:35.020Z,101830.09
2023-02-04T16:18:56.904Z,101824.03
2023-02-04T16:24:18.796Z,101849.03
2023-02-04T16:29:40.636Z,101848.78
2023-02-04T16:35:02.984Z,101859.38
2023-02-04T16:40:24.847Z,101857.41
2023-02-04T16:45:46.736Z,101864.88
2023-02-04T16:51:10.225Z,101886.72
2023-02-04T16:56:33.933Z,101893.63
2023-02-04T17:01:56.546Z,101890.25
2023-02-04T17:07:18.419Z,101909.88
2023-02-04T17:12:40.328Z,101913.06
2023-02-04T17:18:02.571Z,101908.06
2023-02-04T17:23:25.129Z,101919.34
2023-02-04T17:28:46.995Z,101920.50
2023-02-04T17:34:09.248Z,101937.50
2023-02-04T17:39:31.523Z,101947.19
2023-02-04T17:44:53.792Z,101942.53
2023-02-04T17:50:15.924Z,101965.72
2023-02-04T17:55:39.628Z,101971.44
2023-02-04T18:01:01.975Z,101972.44
2023-02-04T18:06:27.093Z,101975.13
2023-02-04T18:11:48.988Z,101962.09
2023-02-04T18:17:13.752Z,101975.19
2023-02-04T18:22:35.597Z,101959.13
2023-02-04T18:28:01.992Z,101964.34
2023-02-04T18:33:26.877Z,101987.25
2023-02-04T18:38:50.349Z,102013.19
2023-02-04T18:44:31.861Z,102024.22
2023-02-04T18:49:53.765Z,102022.88
2023-02-04T18:55:24.101Z,102020.63
2023-02-04T19:01:11.808Z,102012.84
2023-02-04T19:06:39.976Z,102022.91
2023-02-04T19:12:16.927Z,102034.00
2023-02-04T19:17:38.879Z,102031.31
2023-02-04T19:23:00.753Z,102039.22
2023-02-04T19:28:27.579Z,102060.59
2023-02-04T19:33:49.769Z,102071.47
2023-02-04T19:39:33.837Z,102064.97
2023-02-04T19:45:02.229Z,102071.66
2023-02-04T19:50:34.029Z,102068.88
2023-02-04T19:55:56.288Z,102076.59
2023-02-04T20:01:19.428Z,102065.06
2023-02-04T20:06:43.703Z,102077.06
2023-02-04T20:12:13.779Z,102076.34
2023-02-04T20:17:40.977Z,102085.44
2023-02-04T20:23:27.265Z,102100.22
2023-02-04T20:28:49.770Z,102107.81
2023-02-04T20:34:19.278Z,102108.91
2023-02-04T20:39:41.285Z,102110.97
2023-02-04T20:45:33.982Z,102116.75
2023-02-04T20:50:57.584Z,102129.91
2023-02-04T20:56:29.777Z,102141.13
2023-02-04T21:01:51.747Z,102136.09
2023-02-04T21:07:17.727Z,102155.69
2023-02-04T21:12:39.904Z,102159.81
2023-02-04T21:18:01.778Z,102165.03
2023-02-04T21:23:23.857Z,102171.59
2023-02-04T21:28:45.748Z,102167.78
2023-02-04T21:34:07.846Z,102191.34
2023-02-04T21:39:29.743Z,102182.66
2023-02-04T21:44:52.010Z,102193.59
2023-02-04T21:50:15.998Z,102198.38
2023-02-04T21:55:38.426Z,102204.03
2023-02-04T22:01:01.337Z,102213.59
2023-02-04T22:06:23.939Z,102226.91
2023-02-04T22:11:46.294Z,102235.47
2023-02-04T22:17:08.344Z,102239.00
2023-02-04T22:22:30.515Z,102240.38
2023-02-04T22:27:52.785Z,102250.19
2023-02-04T22:33:15.084Z,102244.78
2023-02-04T22:38:37.387Z,102259.53
2023-02-04T22:43:59.808Z,102262.44
2023-02-04T22:49:21.940Z,102262.75
2023-02-04T22:54:43.860Z,102273.31
2023-02-04T23:00:08.521Z,102278.94
2023-02-04T23:05:30.845Z,102289.03
2023-02-04T23:10:52.868Z,102299.09
2023-02-04T23:16:14.979Z,102301.81
2023-02-04T23:21:36.906Z,102304.81
2023-02-04T23:26:58.982Z,102304.03
2023-02-04T23:32:20.882Z,102312.66
2023-02-04T23:37:43.192Z,102307.00
2023-02-04T23:43:05.921Z,102323.09
2023-02-04T23:48:27.828Z,102324.06
2023-02-04T23:53:49.760Z,102325.53
2023-02-04T23:59:11.788Z,102335.75
